Time;durP1;ratioP1;P1;durP2;ratioP2;P2;SDS_P1;SDS_P2;PMS_P1;PMS_P2;Temp;Humidity;BMP_temperature;BMP_pressure;BME280_temperature;BME280_humidity;BME280_pressure;Samples;Min_cycle;Max_cycle;Signal;HPM_P1;HPM_P2
2021/03/13 00:00:54;;;;;;;;;;;;;;;;;;5071199;28;19925;-78
2021/03/13 00:03:20;;;;;;;;;;;;;;;;;;5067822;28;19924;-78
2021/03/13 00:05:47;;;;;;;;;;;;;;;;;;5065058;28;20313;-79
2021/03/13 00:08:18;;;;;;;;;;;;;;;;;;5041437;28;20369;-79
2021/03/13 00:10:44;;;;;;;;;;;;;;;;;;5042399;28;19983;-79
2021/03/13 00:13:11;;;;;;;;;;;;;;;;;;5060048;28;20398;-78
2021/03/13 00:15:38;;;;;;;;;;;;;;;;;;5059953;28;19924;-79
2021/03/13 00:18:05;;;;;;;;;;;;;;;;;;5061169;28;19925;-79
2021/03/13 00:20:32;;;;;;;;;;;;;;;;;;5062016;28;19936;-79
2021/03/13 00:23:00;;;;;;;;;;;;;;;;;;5062693;28;19932;-79
2021/03/13 00:25:28;;;;;;;;;;;;;;;;;;5065030;28;19994;-78
2021/03/13 00:27:55;;;;;;;;;;;;;;;;;;5065420;28;19932;-77
2021/03/13 00:30:22;;;;;;;;;;;;;;;;;;5062954;28;19928;-78
2021/03/13 00:32:49;;;;;;;;;;;;;;;;;;5063095;28;19924;-79
2021/03/13 00:35:17;;;;;;;;;;;;;;;;;;5061781;28;20293;-79
2021/03/13 00:37:46;;;;;;;;;;;;;;;;;;5063036;28;20349;-79
2021/03/13 00:40:12;;;;;;;;;;;;;;;;;;5063626;28;19970;-79
2021/03/13 00:42:39;;;;;;;;;;;;;;;;;;5061620;28;19931;-79
2021/03/13 00:45:06;;;;;;;;;;;;;;;;;;5065580;28;19931;-79
2021/03/13 00:47:34;;;;;;;;;;;;;;;;;;5071487;28;19931;-78
2021/03/13 00:50:05;;;;;;;;;;;;;;;;;;5064841;28;19932;-78
2021/03/13 00:52:40;;;;;;;;;;;;;;;;;;5066648;28;20370;-77
2021/03/13 00:55:08;;;;;;;;;;;;;;;;;;5067830;28;19924;-78
2021/03/13 00:57:35;;;;;;;;;;;;;;;;;;5061831;28;19925;-78
2021/03/13 01:00:02;;;;;;;;;;;;;;;;;;5045522;28;19984;-78
2021/03/13 01:02:29;;;;;;;;;;;;;;;;;;5061227;28;19971;-78
2021/03/13 01:04:57;;;;;;;;;;;;;;;;;;5061000;28;19947;-81
2021/03/13 01:07:23;;;;;;;;;;;;;;;;;;5060223;28;19924;-79
2021/03/13 01:09:52;;;;;;;;;;;;;;;;;;5061465;28;19925;-78
2021/03/13 01:12:19;;;;;;;;;;;;;;;;;;5061485;28;19931;-78
2021/03/13 01:14:45;;;;;;;;;;;;;;;;;;5064229;28;19932;-78
2021/03/13 01:17:14;;;;;;;;;;;;;;;;;;5066233;28;19929;-78
2021/03/13 01:19:40;;;;;;;;;;;;;;;;;;5059743;28;19931;-78
2021/03/13 01:22:07;;;;;;;;;;;;;;;;;;5060626;28;19951;-77
2021/03/13 01:24:40;;;;;;;;;;;;;;;;;;5060491;28;19928;-78
2021/03/13 01:27:06;;;;;;;;;;;;;;;;;;5059694;28;19952;-78
2021/03/13 01:29:33;;;;;;;;;;;;;;;;;;5060712;28;19986;-78
2021/03/13 01:32:03;;;;;;;;;;;;;;;;;;5059868;28;20190;-78
2021/03/13 01:34:30;;;;;;;;;;;;;;;;;;5059366;28;19924;-78
2021/03/13 01:36:56;;;;;;;;;;;;;;;;;;5058065;28;20386;-78
2021/03/13 01:39:23;;;;;;;;;;;;;;;;;;5038738;28;19924;-78
2021/03/13 01:41:52;;;;;;;;;;;;;;;;;;5058653;28;19932;-78
2021/03/13 01:44:19;;;;;;;;;;;;;;;;;;5057176;28;19925;-78
2021/03/13 01:46:48;;;;;;;;;;;;;;;;;;5057773;28;19929;-78
2021/03/13 01:49:18;;;;;;;;;;;;;;;;;;5057898;28;20012;-76
2021/03/13 01:51:48;;;;;;;;;;;;;;;;;;5057826;28;20382;-78
2021/03/13 01:54:14;;;;;;;;;;;;;;;;;;5057355;28;19928;-78
2021/03/13 01:56:42;;;;;;;;;;;;;;;;;;5057647;28;19939;-78
2021/03/13 01:59:08;;;;;;;;;;;;;;;;;;5056861;28;19932;-79
2021/03/13 02:01:35;;;;;;;;;;;;;;;;;;5057102;28;20315;-78
2021/03/13 02:04:02;;;;;;;;;;;;;;;;;;5057779;28;19975;-77
2021/03/13 02:06:28;;;;;;;;;;;;;;;;;;5057257;28;20401;-78
2021/03/13 02:08:57;;;;;;;;;;;;;;;;;;5055305;28;19932;-78
2021/03/13 02:11:24;;;;;;;;;;;;;;;;;;5055216;28;19925;-78
2021/03/13 02:13:50;;;;;;;;;;;;;;;;;;5056004;28;19929;-79
2021/03/13 02:16:17;;;;;;;;;;;;;;;;;;5061442;28;19925;-78
2021/03/13 02:18:44;;;;;;;;;;;;;;;;;;5064292;28;19932;-78
2021/03/13 02:21:11;;;;;;;;;;;;;;;;;;5060933;28;20303;-78
2021/03/13 02:23:37;;;;;;;;;;;;;;;;;;5042202;28;19924;-78
2021/03/13 02:26:04;;;;;;;;;;;;;;;;;;5060508;28;20294;-78
2021/03/13 02:28:31;;;;;;;;;;;;;;;;;;5060220;28;19931;-78
2021/03/13 02:30:58;;;;;;;;;;;;;;;;;;5059859;28;19925;-78
2021/03/13 02:33:25;;;;;;;;;;;;;;;;;;5059452;28;20405;-79
2021/03/13 02:35:54;;;;;;;;;;;;;;;;;;5060259;28;20015;-79
2021/03/13 02:38:20;;;;;;;;;;;;;;;;;;5061714;28;19931;-78
2021/03/13 02:40:47;;;;;;;;;;;;;;;;;;5065247;28;19975;-79
2021/03/13 02:43:15;;;;;;;;;;;;;;;;;;5063237;28;19929;-78
2021/03/13 02:45:42;;;;;;;;;;;;;;;;;;5043761;28;19928;-78
2021/03/13 02:48:16;;;;;;;;;;;;;;;;;;5061598;28;19924;-78
2021/03/13 02:50:43;;;;;;;;;;;;;;;;;;5062240;28;19947;-78
2021/03/13 02:53:10;;;;;;;;;;;;;;;;;;5061236;28;20286;-78
2021/03/13 02:55:36;;;;;;;;;;;;;;;;;;5042962;28;19931;-78
2021/03/13 02:58:03;;;;;;;;;;;;;;;;;;5060277;28;20015;-78
2021/03/13 03:00:36;;;;;;;;;;;;;;;;;;5063231;28;19971;-78
2021/03/13 03:03:03;;;;;;;;;;;;;;;;;;5059337;28;19928;-78
2021/03/13 03:05:29;;;;;;;;;;;;;;;;;;5059535;28;19987;-78
2021/03/13 03:07:56;;;;;;;;;;;;;;;;;;5059342;28;19931;-79
2021/03/13 03:10:23;;;;;;;;;;;;;;;;;;5060150;28;19971;-78
2021/03/13 03:12:49;;;;;;;;;;;;;;;;;;5059294;28;19983;-78
2021/03/13 03:15:20;;;;;;;;;;;;;;;;;;5059159;28;19932;-78
2021/03/13 03:17:47;;;;;;;;;;;;;;;;;;5059602;28;19925;-78
2021/03/13 03:20:13;;;;;;;;;;;;;;;;;;5058657;28;19987;-79
2021/03/13 03:22:40;;;;;;;;;;;;;;;;;;5059246;28;19925;-79
2021/03/13 03:25:06;;;;;;;;;;;;;;;;;;5058695;28;19925;-79
2021/03/13 03:27:33;;;;;;;;;;;;;;;;;;5058593;28;19925;-78
2021/03/13 03:30:00;;;;;;;;;;;;;;;;;;5060209;28;19939;-78
2021/03/13 03:32:26;;;;;;;;;;;;;;;;;;5058453;28;19975;-79
2021/03/13 03:34:53;;;;;;;;;;;;;;;;;;5057591;28;20397;-78
2021/03/13 03:37:19;;;;;;;;;;;;;;;;;;5058875;28;19925;-78
2021/03/13 03:39:46;;;;;;;;;;;;;;;;;;5058617;28;19929;-79
2021/03/13 03:42:15;;;;;;;;;;;;;;;;;;5056788;28;19947;-79
2021/03/13 03:44:42;;;;;;;;;;;;;;;;;;5056780;28;19928;-78
2021/03/13 03:47:09;;;;;;;;;;;;;;;;;;5057260;28;19932;-78
2021/03/13 03:49:35;;;;;;;;;;;;;;;;;;5057148;28;20302;-78
2021/03/13 03:52:02;;;;;;;;;;;;;;;;;;5057463;28;20286;-78
2021/03/13 03:54:29;;;;;;;;;;;;;;;;;;5056371;28;20371;-79
2021/03/13 03:56:55;;;;;;;;;;;;;;;;;;5056376;28;19982;-78
2021/03/13 03:59:22;;;;;;;;;;;;;;;;;;5039219;28;19928;-78
2021/03/13 04:01:49;;;;;;;;;;;;;;;;;;5057205;28;19924;-78
2021/03/13 04:04:15;;;;;;;;;;;;;;;;;;5056976;28;19924;-78
2021/03/13 04:06:42;;;;;;;;;;;;;;;;;;5057087;28;19935;-78
2021/03/13 04:09:08;;;;;;;;;;;;;;;;;;5058872;28;19932;-78
2021/03/13 04:11:35;;;;;;;;;;;;;;;;;;5057402;28;19931;-78
2021/03/13 04:14:02;;;;;;;;;;;;;;;;;;5038575;28;20404;-78
2021/03/13 04:16:28;;;;;;;;;;;;;;;;;;5056492;28;19932;-78
2021/03/13 04:18:55;;;;;;;;;;;;;;;;;;5056715;28;19925;-78
2021/03/13 04:21:22;;;;;;;;;;;;;;;;;;5038774;28;19929;-78
2021/03/13 04:23:48;;;;;;;;;;;;;;;;;;5056586;28;19925;-78
2021/03/13 04:26:15;;;;;;;;;;;;;;;;;;5056618;28;19925;-78
2021/03/13 04:28:42;;;;;;;;;;;;;;;;;;5056306;28;20405;-81
2021/03/13 04:31:08;;;;;;;;;;;;;;;;;;5038384;28;19925;-80
2021/03/13 04:33:35;;;;;;;;;;;;;;;;;;5056259;28;20027;-80
2021/03/13 04:36:02;;;;;;;;;;;;;;;;;;5056130;28;19928;-79
2021/03/13 04:38:28;;;;;;;;;;;;;;;;;;5055782;28;20390;-80
2021/03/13 04:40:55;;;;;;;;;;;;;;;;;;5062875;28;19932;-80
2021/03/13 04:43:22;;;;;;;;;;;;;;;;;;5058211;28;19955;-80
2021/03/13 04:45:48;;;;;;;;;;;;;;;;;;5056136;28;19925;-80
2021/03/13 04:48:15;;;;;;;;;;;;;;;;;;5038576;28;20359;-80
2021/03/13 04:50:42;;;;;;;;;;;;;;;;;;5056917;28;19928;-80
2021/03/13 04:53:08;;;;;;;;;;;;;;;;;;5055972;28;20357;-80
2021/03/13 04:55:35;;;;;;;;;;;;;;;;;;5056332;28;20335;-79
2021/03/13 04:58:01;;;;;;;;;;;;;;;;;;5056659;28;19924;-80
2021/03/13 05:00:28;;;;;;;;;;;;;;;;;;5036681;28;19925;-79
2021/03/13 05:02:55;;;;;;;;;;;;;;;;;;5056228;28;19932;-78
2021/03/13 05:05:21;;;;;;;;;;;;;;;;;;5056372;28;19924;-79
2021/03/13 05:07:48;;;;;;;;;;;;;;;;;;5056983;28;19924;-80
2021/03/13 05:10:15;;;;;;;;;;;;;;;;;;5056749;28;19925;-78
2021/03/13 05:12:41;;;;;;;;;;;;;;;;;;5054886;28;19932;-80
2021/03/13 05:15:08;;;;;;;;;;;;;;;;;;5055576;28;19925;-80
2021/03/13 05:17:34;;;;;;;;;;;;;;;;;;5055567;28;19925;-80
2021/03/13 05:20:01;;;;;;;;;;;;;;;;;;5055591;28;19979;-80
2021/03/13 05:22:28;;;;;;;;;;;;;;;;;;5056115;28;19924;-80
2021/03/13 05:24:54;;;;;;;;;;;;;;;;;;5055393;28;20321;-80
2021/03/13 05:27:21;;;;;;;;;;;;;;;;;;5056072;28;20295;-80
2021/03/13 05:29:47;;;;;;;;;;;;;;;;;;5055180;28;19932;-80
2021/03/13 05:32:16;;;;;;;;;;;;;;;;;;5037808;28;19924;-80
2021/03/13 05:34:42;;;;;;;;;;;;;;;;;;5055528;28;19932;-80
2021/03/13 05:37:09;;;;;;;;;;;;;;;;;;5055108;28;19925;-80
2021/03/13 05:39:36;;;;;;;;;;;;;;;;;;5054541;28;19925;-80
2021/03/13 05:42:02;;;;;;;;;;;;;;;;;;5054911;28;20475;-80
2021/03/13 05:44:29;;;;;;;;;;;;;;;;;;5054576;28;19979;-79
2021/03/13 05:46:56;;;;;;;;;;;;;;;;;;5055004;28;19931;-79
2021/03/13 05:49:23;;;;;;;;;;;;;;;;;;5054126;28;19994;-80
2021/03/13 05:51:50;;;;;;;;;;;;;;;;;;5055270;28;20019;-79
2021/03/13 05:54:16;;;;;;;;;;;;;;;;;;5037003;28;19933;-79
2021/03/13 05:56:43;;;;;;;;;;;;;;;;;;5055395;28;19925;-80
2021/03/13 05:59:10;;;;;;;;;;;;;;;;;;5037164;28;19925;-80
2021/03/13 06:01:39;;;;;;;;;;;;;;;;;;5038348;28;19932;-79
2021/03/13 06:04:05;;;;;;;;;;;;;;;;;;5056070;28;19931;-79
2021/03/13 06:06:32;;;;;;;;;;;;;;;;;;5054496;28;19929;-80
2021/03/13 06:09:00;;;;;;;;;;;;;;;;;;5055045;28;20015;-80
2021/03/13 06:11:26;;;;;;;;;;;;;;;;;;5054829;28;19947;-79
2021/03/13 06:13:55;;;;;;;;;;;;;;;;;;5053864;28;19925;-80
2021/03/13 06:16:21;;;;;;;;;;;;;;;;;;5055483;28;20011;-77
2021/03/13 06:18:48;;;;;;;;;;;;;;;;;;5052581;28;20290;-80
2021/03/13 06:21:15;;;;;;;;;;;;;;;;;;5035448;28;19928;-78
2021/03/13 06:23:41;;;;;;;;;;;;;;;;;;5036493;28;19924;-79
2021/03/13 06:26:08;;;;;;;;;;;;;;;;;;5053996;28;20378;-78
2021/03/13 06:28:35;;;;;;;;;;;;;;;;;;5053561;28;19925;-77
2021/03/13 06:31:01;;;;;;;;;;;;;;;;;;5053933;28;19925;-77
2021/03/13 06:33:28;;;;;;;;;;;;;;;;;;5053398;28;19947;-77
2021/03/13 06:35:55;;;;;;;;;;;;;;;;;;5053515;28;20379;-77
2021/03/13 06:38:21;;;;;;;;;;;;;;;;;;5053642;28;20290;-79
2021/03/13 06:40:48;;;;;;;;;;;;;;;;;;5053394;28;20444;-77
2021/03/13 06:43:15;;;;;;;;;;;;;;;;;;5053424;28;19940;-77
2021/03/13 06:45:41;;;;;;;;;;;;;;;;;;5053799;28;19932;-77
2021/03/13 06:48:08;;;;;;;;;;;;;;;;;;5053748;28;19932;-77
2021/03/13 06:50:34;;;;;;;;;;;;;;;;;;5053695;28;19978;-77
2021/03/13 06:53:01;;;;;;;;;;;;;;;;;;5035843;28;20432;-77
2021/03/13 06:55:28;;;;;;;;;;;;;;;;;;5053308;28;19925;-76
2021/03/13 06:57:54;;;;;;;;;;;;;;;;;;5053343;28;19929;-76
2021/03/13 07:00:21;;;;;;;;;;;;;;;;;;5054484;28;19932;-77
2021/03/13 07:02:48;;;;;;;;;;;;;;;;;;5057265;28;20370;-76
2021/03/13 07:05:14;;;;;;;;;;;;;;;;;;5057336;28;20329;-76
2021/03/13 07:07:41;;;;;;;;;;;;;;;;;;5057606;28;20263;-76
2021/03/13 07:10:07;;;;;;;;;;;;;;;;;;5057156;28;19932;-77
2021/03/13 07:12:35;;;;;;;;;;;;;;;;;;5057022;28;19925;-76
2021/03/13 07:15:01;;;;;;;;;;;;;;;;;;5057207;28;20295;-76
2021/03/13 07:17:28;;;;;;;;;;;;;;;;;;5056776;28;19970;-76
2021/03/13 07:19:56;;;;;;;;;;;;;;;;;;5056774;28;19979;-77
2021/03/13 07:22:23;;;;;;;;;;;;;;;;;;5056869;28;20276;-76
2021/03/13 07:24:49;;;;;;;;;;;;;;;;;;5056522;28;19925;-77
2021/03/13 07:27:16;;;;;;;;;;;;;;;;;;5061760;28;19925;-77
2021/03/13 07:29:43;;;;;;;;;;;;;;;;;;5061269;28;19958;-76
2021/03/13 07:32:09;;;;;;;;;;;;;;;;;;5056761;28;19925;-77
2021/03/13 07:34:36;;;;;;;;;;;;;;;;;;5056351;28;19960;-77
2021/03/13 07:37:02;;;;;;;;;;;;;;;;;;5056650;28;19940;-77
2021/03/13 07:39:29;;;;;;;;;;;;;;;;;;5056224;28;19932;-77
2021/03/13 07:41:56;;;;;;;;;;;;;;;;;;5056291;28;19929;-76
2021/03/13 07:44:22;;;;;;;;;;;;;;;;;;5056145;28;19928;-77
2021/03/13 07:46:49;;;;;;;;;;;;;;;;;;5056389;28;20387;-77
2021/03/13 07:49:17;;;;;;;;;;;;;;;;;;5056164;28;19925;-76
2021/03/13 07:51:43;;;;;;;;;;;;;;;;;;5055979;28;19980;-77
2021/03/13 07:54:10;;;;;;;;;;;;;;;;;;5056371;28;19932;-76
2021/03/13 07:56:36;;;;;;;;;;;;;;;;;;5055627;28;20272;-77
2021/03/13 07:59:04;;;;;;;;;;;;;;;;;;5056070;28;19932;-77
2021/03/13 08:01:30;;;;;;;;;;;;;;;;;;5056352;28;19925;-77
2021/03/13 08:03:57;;;;;;;;;;;;;;;;;;5056310;28;19925;-76
2021/03/13 08:06:24;;;;;;;;;;;;;;;;;;5054618;28;19928;-76
2021/03/13 08:08:52;;;;;;;;;;;;;;;;;;5056154;28;19968;-76
2021/03/13 08:11:19;;;;;;;;;;;;;;;;;;5055747;28;19925;-77
2021/03/13 08:13:45;;;;;;;;;;;;;;;;;;5055513;28;19925;-77
2021/03/13 08:16:12;;;;;;;;;;;;;;;;;;5055747;28;20019;-76
2021/03/13 08:18:39;;;;;;;;;;;;;;;;;;5055764;28;19925;-77
2021/03/13 08:21:05;;;;;;;;;;;;;;;;;;5055790;28;20329;-77
2021/03/13 08:23:32;;;;;;;;;;;;;;;;;;5055229;28;19925;-77
2021/03/13 08:25:58;;;;;;;;;;;;;;;;;;5055678;28;19929;-77
2021/03/13 08:28:25;;;;;;;;;;;;;;;;;;5055478;28;19925;-77
2021/03/13 08:30:52;;;;;;;;;;;;;;;;;;5055535;28;19925;-77
2021/03/13 08:33:18;;;;;;;;;;;;;;;;;;5055205;28;19940;-77
2021/03/13 08:35:45;;;;;;;;;;;;;;;;;;5055235;28;19925;-76
2021/03/13 08:38:12;;;;;;;;;;;;;;;;;;5055272;28;20173;-77
2021/03/13 08:40:38;;;;;;;;;;;;;;;;;;5055125;28;19932;-77
2021/03/13 08:43:05;;;;;;;;;;;;;;;;;;5055470;28;19925;-77
2021/03/13 08:45:32;;;;;;;;;;;;;;;;;;5055452;28;20382;-77
2021/03/13 08:48:00;;;;;;;;;;;;;;;;;;5057701;28;19925;-77
2021/03/13 08:50:26;;;;;;;;;;;;;;;;;;5056511;28;19932;-77
2021/03/13 08:52:53;;;;;;;;;;;;;;;;;;5037964;28;19929;-76
2021/03/13 08:55:19;;;;;;;;;;;;;;;;;;5055582;28;19931;-77
2021/03/13 08:57:48;;;;;;;;;;;;;;;;;;5055820;28;19947;-78
2021/03/13 09:00:17;;;;;;;;;;;;;;;;;;5055605;28;20340;-76
2021/03/13 09:02:43;;;;;;;;;;;;;;;;;;5057524;28;19978;-76
2021/03/13 09:05:10;;;;;;;;;;;;;;;;;;5056901;28;19932;-76
2021/03/13 09:07:36;;;;;;;;;;;;;;;;;;5057713;28;19925;-76
2021/03/13 09:10:03;;;;;;;;;;;;;;;;;;5056023;28;19971;-76
2021/03/13 09:12:30;;;;;;;;;;;;;;;;;;5057078;28;19925;-76
2021/03/13 09:14:57;;;;;;;;;;;;;;;;;;5056864;28;20379;-78
2021/03/13 09:17:23;;;;;;;;;;;;;;;;;;5056991;28;19964;-77
2021/03/13 09:19:50;;;;;;;;;;;;;;;;;;5056022;28;20375;-77
2021/03/13 09:22:17;;;;;;;;;;;;;;;;;;5055603;28;19928;-77
2021/03/13 09:24:43;;;;;;;;;;;;;;;;;;5055389;28;19940;-77
2021/03/13 09:27:11;;;;;;;;;;;;;;;;;;5056135;28;19932;-76
2021/03/13 09:29:38;;;;;;;;;;;;;;;;;;5055675;28;19931;-77
2021/03/13 09:32:05;;;;;;;;;;;;;;;;;;5055173;28;19931;-78
2021/03/13 09:34:31;;;;;;;;;;;;;;;;;;5055616;28;20003;-78
2021/03/13 09:36:58;;;;;;;;;;;;;;;;;;5056803;28;19925;-78
2021/03/13 09:39:25;;;;;;;;;;;;;;;;;;5055403;28;19948;-81
2021/03/13 09:41:51;;;;;;;;;;;;;;;;;;5036471;28;19928;-78
2021/03/13 09:44:18;;;;;;;;;;;;;;;;;;5054546;28;19970;-78
2021/03/13 09:46:44;;;;;;;;;;;;;;;;;;5054530;28;20338;-78
2021/03/13 09:49:11;;;;;;;;;;;;;;;;;;5054466;28;19925;-77
2021/03/13 09:51:38;;;;;;;;;;;;;;;;;;5054133;28;19932;-77
2021/03/13 09:54:04;;;;;;;;;;;;;;;;;;5054444;28;19925;-77
2021/03/13 09:56:31;;;;;;;;;;;;;;;;;;5055541;28;19948;-78
2021/03/13 09:58:57;;;;;;;;;;;;;;;;;;5057463;28;19932;-78
2021/03/13 10:01:24;;;;;;;;;;;;;;;;;;5059119;28;20298;-78
2021/03/13 10:03:51;;;;;;;;;;;;;;;;;;5057582;28;19982;-77
2021/03/13 10:06:17;;;;;;;;;;;;;;;;;;5058367;28;19929;-78
2021/03/13 10:08:44;;;;;;;;;;;;;;;;;;5055768;28;19925;-78
2021/03/13 10:11:10;;;;;;;;;;;;;;;;;;5057377;28;20378;-78
2021/03/13 10:13:37;;;;;;;;;;;;;;;;;;5057576;28;20301;-79
2021/03/13 10:16:04;;;;;;;;;;;;;;;;;;5058409;28;19925;-78
2021/03/13 10:18:30;;;;;;;;;;;;;;;;;;5055380;28;19925;-78
2021/03/13 10:20:58;;;;;;;;;;;;;;;;;;5054420;28;19924;-77
2021/03/13 10:23:25;;;;;;;;;;;;;;;;;;5054624;28;19925;-78
2021/03/13 10:25:51;;;;;;;;;;;;;;;;;;5054082;28;19936;-78
2021/03/13 10:28:18;;;;;;;;;;;;;;;;;;5056749;28;20286;-77
2021/03/13 10:30:44;;;;;;;;;;;;;;;;;;5055080;28;19931;-76
2021/03/13 10:33:11;;;;;;;;;;;;;;;;;;5056191;28;19925;-77
2021/03/13 10:35:38;;;;;;;;;;;;;;;;;;5056902;28;19925;-77
2021/03/13 10:38:04;;;;;;;;;;;;;;;;;;5060537;28;20358;-80
2021/03/13 10:40:32;;;;;;;;;;;;;;;;;;5061936;28;19937;-82
2021/03/13 10:42:58;;;;;;;;;;;;;;;;;;5062130;28;19925;-80
2021/03/13 10:45:25;;;;;;;;;;;;;;;;;;5058881;28;19924;-84
2021/03/13 10:47:52;;;;;;;;;;;;;;;;;;5059052;28;19925;-78
2021/03/13 10:50:18;;;;;;;;;;;;;;;;;;5058258;28;19929;-80
2021/03/13 10:52:45;;;;;;;;;;;;;;;;;;5058245;28;20282;-81
2021/03/13 10:55:12;;;;;;;;;;;;;;;;;;5058410;28;20345;-83
2021/03/13 10:57:38;;;;;;;;;;;;;;;;;;5058641;28;19978;-79
2021/03/13 11:00:05;;;;;;;;;;;;;;;;;;5057972;28;19925;-79
2021/03/13 11:02:31;;;;;;;;;;;;;;;;;;5058554;28;19925;-76
2021/03/13 11:05:00;;;;;;;;;;;;;;;;;;5055429;28;19925;-76
2021/03/13 11:07:27;;;;;;;;;;;;;;;;;;5038564;28;19925;-75
2021/03/13 11:09:55;;;;;;;;;;;;;;;;;;5057010;28;19932;-75
2021/03/13 11:12:22;;;;;;;;;;;;;;;;;;5056715;28;20379;-76
2021/03/13 11:14:50;;;;;;;;;;;;;;;;;;5057927;28;19932;-76
2021/03/13 11:17:17;;;;;;;;;;;;;;;;;;5058261;28;19925;-78
2021/03/13 11:19:45;;;;;;;;;;;;;;;;;;5040130;28;19948;-78
2021/03/13 11:22:11;;;;;;;;;;;;;;;;;;5057546;28;19970;-77
2021/03/13 11:24:39;;;;;;;;;;;;;;;;;;5057155;28;19925;-76
2021/03/13 11:27:06;;;;;;;;;;;;;;;;;;5057145;28;19979;-76
2021/03/13 11:29:34;;;;;;;;;;;;;;;;;;5057877;28;19928;-78
2021/03/13 11:32:00;;;;;;;;;;;;;;;;;;5057552;28;19932;-77
2021/03/13 11:34:27;;;;;;;;;;;;;;;;;;5058505;28;19986;-80
2021/03/13 11:36:54;;;;;;;;;;;;;;;;;;5041165;28;19925;-89
2021/03/13 11:39:21;;;;;;;;;;;;;;;;;;5068031;28;20382;-82
2021/03/13 11:41:48;;;;;;;;;;;;;;;;;;5058507;28;19925;-80
2021/03/13 11:44:15;;;;;;;;;;;;;;;;;;5057585;28;19924;-81
2021/03/13 11:46:43;;;;;;;;;;;;;;;;;;5056665;28;19948;-81
2021/03/13 11:49:09;;;;;;;;;;;;;;;;;;5058222;28;19925;-80
2021/03/13 11:51:37;;;;;;;;;;;;;;;;;;5041613;28;19946;-81
2021/03/13 11:54:03;;;;;;;;;;;;;;;;;;5058457;28;19929;-80
2021/03/13 11:56:30;;;;;;;;;;;;;;;;;;5057379;28;19925;-81
2021/03/13 11:58:57;;;;;;;;;;;;;;;;;;5060180;28;19925;-81
2021/03/13 12:01:23;;;;;;;;;;;;;;;;;;5059174;28;19931;-81
2021/03/13 12:03:50;;;;;;;;;;;;;;;;;;5056950;28;19925;-81
2021/03/13 12:06:17;;;;;;;;;;;;;;;;;;5059561;28;19978;-82
2021/03/13 12:08:44;;;;;;;;;;;;;;;;;;5039563;28;19930;-80
2021/03/13 12:11:10;;;;;;;;;;;;;;;;;;5058351;28;19925;-80
2021/03/13 12:13:37;;;;;;;;;;;;;;;;;;5057705;28;19925;-81
2021/03/13 12:16:04;;;;;;;;;;;;;;;;;;5058066;28;19925;-81
2021/03/13 12:18:32;;;;;;;;;;;;;;;;;;5056716;28;20366;-81
2021/03/13 12:20:58;;;;;;;;;;;;;;;;;;5060648;28;19925;-80
2021/03/13 12:23:25;;;;;;;;;;;;;;;;;;5040238;28;19924;-80
2021/03/13 12:25:52;;;;;;;;;;;;;;;;;;5058897;28;19924;-80
2021/03/13 12:28:18;;;;;;;;;;;;;;;;;;5057575;28;19932;-81
2021/03/13 12:30:45;;;;;;;;;;;;;;;;;;5058975;28;19951;-81
2021/03/13 12:33:11;;;;;;;;;;;;;;;;;;5057891;28;19932;-81
2021/03/13 12:35:39;;;;;;;;;;;;;;;;;;5056609;28;19925;-80
2021/03/13 12:38:05;;;;;;;;;;;;;;;;;;5055893;28;20294;-80
2021/03/13 12:40:32;;;;;;;;;;;;;;;;;;5055271;28;19925;-80
2021/03/13 12:42:59;;;;;;;;;;;;;;;;;;5057275;28;19925;-80
2021/03/13 12:45:25;;;;;;;;;;;;;;;;;;5055775;28;19925;-80
2021/03/13 12:47:52;;;;;;;;;;;;;;;;;;5055385;28;19925;-80
2021/03/13 12:50:19;;;;;;;;;;;;;;;;;;5055634;28;20409;-80
2021/03/13 12:52:45;;;;;;;;;;;;;;;;;;5056103;28;20301;-81
2021/03/13 12:55:13;;;;;;;;;;;;;;;;;;5056348;28;19925;-82
2021/03/13 12:57:40;;;;;;;;;;;;;;;;;;5057304;28;19924;-81
2021/03/13 13:00:06;;;;;;;;;;;;;;;;;;5055983;28;20302;-80
2021/03/13 13:02:33;;;;;;;;;;;;;;;;;;5054907;28;19928;-80
2021/03/13 13:04:59;;;;;;;;;;;;;;;;;;5054901;28;19978;-80
2021/03/13 13:07:26;;;;;;;;;;;;;;;;;;5054800;28;19928;-80
2021/03/13 13:09:53;;;;;;;;;;;;;;;;;;5054229;28;20028;-80
2021/03/13 13:12:20;;;;;;;;;;;;;;;;;;5053949;28;20286;-80
2021/03/13 13:14:47;;;;;;;;;;;;;;;;;;5054328;28;19925;-80
2021/03/13 13:17:13;;;;;;;;;;;;;;;;;;5054762;28;19929;-79
2021/03/13 13:19:40;;;;;;;;;;;;;;;;;;5055165;28;19924;-78
2021/03/13 13:22:07;;;;;;;;;;;;;;;;;;5054831;28;19925;-79
2021/03/13 13:24:33;;;;;;;;;;;;;;;;;;5055402;28;20397;-79
2021/03/13 13:27:00;;;;;;;;;;;;;;;;;;5056331;28;20325;-79
2021/03/13 13:29:28;;;;;;;;;;;;;;;;;;5055251;28;20312;-79
2021/03/13 13:31:54;;;;;;;;;;;;;;;;;;5056361;28;19932;-80
2021/03/13 13:37:06;;;;;;;;;;;;;;;;;;5072793;28;19924;-79
2021/03/13 13:39:55;;;;;;;;;;;;;;;;;;5068808;28;19944;-79
2021/03/13 13:42:23;;;;;;;;;;;;;;;;;;5069081;28;19924;-79
2021/03/13 13:44:50;;;;;;;;;;;;;;;;;;5067254;28;19948;-79
2021/03/13 13:47:19;;;;;;;;;;;;;;;;;;5066075;28;19931;-80
2021/03/13 13:49:45;;;;;;;;;;;;;;;;;;5064275;28;19925;-78
2021/03/13 13:52:15;;;;;;;;;;;;;;;;;;5058381;28;19940;-78
2021/03/13 13:54:42;;;;;;;;;;;;;;;;;;5057851;28;19931;-79
2021/03/13 13:57:08;;;;;;;;;;;;;;;;;;5058650;28;19925;-79
2021/03/13 13:59:35;;;;;;;;;;;;;;;;;;5061784;28;19925;-78
2021/03/13 14:02:01;;;;;;;;;;;;;;;;;;5061222;28;19951;-79
2021/03/13 14:04:28;;;;;;;;;;;;;;;;;;5065317;28;19931;-78
2021/03/13 14:06:54;;;;;;;;;;;;;;;;;;5060367;28;19925;-78
2021/03/13 14:09:21;;;;;;;;;;;;;;;;;;5063348;28;19932;-79
2021/03/13 14:11:48;;;;;;;;;;;;;;;;;;5065070;28;19924;-80
2021/03/13 14:14:14;;;;;;;;;;;;;;;;;;5065247;28;20008;-79
2021/03/13 14:16:41;;;;;;;;;;;;;;;;;;5061630;28;19986;-79
2021/03/13 14:19:09;;;;;;;;;;;;;;;;;;5066133;28;19931;-79
2021/03/13 14:24:25;;;;;;;;;;;;;;;;;;5067684;28;19924;-77
2021/03/13 14:26:52;;;;;;;;;;;;;;;;;;5067386;28;19924;-80
2021/03/13 14:29:21;;;;;;;;;;;;;;;;;;5065681;28;19932;-80
2021/03/13 14:31:48;;;;;;;;;;;;;;;;;;5066368;28;19978;-78
2021/03/13 14:34:15;;;;;;;;;;;;;;;;;;5065755;28;19924;-79
2021/03/13 14:36:43;;;;;;;;;;;;;;;;;;5070410;28;19946;-77
2021/03/13 14:39:12;;;;;;;;;;;;;;;;;;5065017;28;19924;-78
2021/03/13 14:41:39;;;;;;;;;;;;;;;;;;5068804;28;19932;-78
2021/03/13 14:44:06;;;;;;;;;;;;;;;;;;5050025;28;19933;-78
2021/03/13 14:46:33;;;;;;;;;;;;;;;;;;5067536;28;19925;-77
2021/03/13 14:48:59;;;;;;;;;;;;;;;;;;5067074;28;19946;-76
2021/03/13 14:51:26;;;;;;;;;;;;;;;;;;5065873;28;19924;-76
2021/03/13 14:53:53;;;;;;;;;;;;;;;;;;5064852;28;19924;-76
2021/03/13 14:56:24;;;;;;;;;;;;;;;;;;5060771;28;19975;-76
2021/03/13 14:58:50;;;;;;;;;;;;;;;;;;5060112;28;20326;-78
2021/03/13 15:01:17;;;;;;;;;;;;;;;;;;5064319;28;19932;-78
2021/03/13 15:03:44;;;;;;;;;;;;;;;;;;5061033;28;19978;-78
2021/03/13 15:06:11;;;;;;;;;;;;;;;;;;5060906;28;19925;-77
2021/03/13 15:08:47;;;;;;;;;;;;;;;;;;5062033;28;19924;-76
2021/03/13 15:11:20;;;;;;;;;;;;;;;;;;5062834;28;19928;-77
2021/03/13 15:13:48;;;;;;;;;;;;;;;;;;5058431;28;20697;-77
2021/03/13 15:16:15;;;;;;;;;;;;;;;;;;5062922;28;20016;-77
2021/03/13 15:18:41;;;;;;;;;;;;;;;;;;5062079;28;19909;-78
2021/03/13 15:21:08;;;;;;;;;;;;;;;;;;5062831;28;19925;-77
2021/03/13 15:23:35;;;;;;;;;;;;;;;;;;5060809;28;19928;-77
2021/03/13 15:26:07;;;;;;;;;;;;;;;;;;5063640;28;20300;-79
2021/03/13 15:28:34;;;;;;;;;;;;;;;;;;5061835;28;19935;-78
2021/03/13 15:31:01;;;;;;;;;;;;;;;;;;5060364;28;19925;-79
2021/03/13 15:33:27;;;;;;;;;;;;;;;;;;5059686;28;19925;-78
2021/03/13 15:35:55;;;;;;;;;;;;;;;;;;5058981;28;20371;-78
2021/03/13 15:38:22;;;;;;;;;;;;;;;;;;5058310;28;19957;-79
2021/03/13 15:40:53;;;;;;;;;;;;;;;;;;5056712;28;20323;-79
2021/03/13 15:43:19;;;;;;;;;;;;;;;;;;5058281;28;20019;-81
2021/03/13 15:45:46;;;;;;;;;;;;;;;;;;5059448;28;19925;-82
2021/03/13 15:48:12;;;;;;;;;;;;;;;;;;5058725;28;20020;-76
2021/03/13 15:50:39;;;;;;;;;;;;;;;;;;5059858;28;19998;-77
2021/03/13 15:53:08;;;;;;;;;;;;;;;;;;5061398;28;19924;-77
2021/03/13 15:55:34;;;;;;;;;;;;;;;;;;5060146;28;19925;-79
2021/03/13 15:58:01;;;;;;;;;;;;;;;;;;5058887;28;19925;-77
2021/03/13 16:00:28;;;;;;;;;;;;;;;;;;5059518;28;20448;-77
2021/03/13 16:02:56;;;;;;;;;;;;;;;;;;5039653;28;19932;-76
2021/03/13 16:05:23;;;;;;;;;;;;;;;;;;5056364;28;20398;-76
2021/03/13 16:07:50;;;;;;;;;;;;;;;;;;5057816;28;19925;-77
2021/03/13 16:10:16;;;;;;;;;;;;;;;;;;5056132;28;19928;-75
2021/03/13 16:12:43;;;;;;;;;;;;;;;;;;5055207;28;19940;-75
2021/03/13 16:15:09;;;;;;;;;;;;;;;;;;5055895;28;19924;-74
2021/03/13 16:17:37;;;;;;;;;;;;;;;;;;5055649;28;19929;-75
2021/03/13 16:20:03;;;;;;;;;;;;;;;;;;5055779;28;19929;-75
2021/03/13 16:22:30;;;;;;;;;;;;;;;;;;5055898;28;19929;-75
2021/03/13 16:24:57;;;;;;;;;;;;;;;;;;5055021;28;19932;-75
2021/03/13 16:27:24;;;;;;;;;;;;;;;;;;5055262;28;19933;-75
2021/03/13 16:29:50;;;;;;;;;;;;;;;;;;5055312;28;19931;-75
2021/03/13 16:32:17;;;;;;;;;;;;;;;;;;5057646;28;19933;-75
2021/03/13 16:34:45;;;;;;;;;;;;;;;;;;5063185;28;19929;-75
2021/03/13 16:37:11;;;;;;;;;;;;;;;;;;5064909;28;19925;-75
2021/03/13 16:39:38;;;;;;;;;;;;;;;;;;5060068;28;20285;-75
2021/03/13 16:42:05;;;;;;;;;;;;;;;;;;5070203;28;19932;-75
2021/03/13 16:44:32;;;;;;;;;;;;;;;;;;5075911;28;19925;-75
2021/03/13 16:46:58;;;;;;;;;;;;;;;;;;5075753;28;19930;-74
2021/03/13 16:49:25;;;;;;;;;;;;;;;;;;5075383;28;19931;-75